Morriston, Mississippi
Current Conditions -  °F | °C
As of 12:53 PM on Tuesday 21 Oct 2014 (Local Time) from KHBG Reporting Station
Clear Clear  
Wind Chill: 77°   Ceiling: Unl
Heat Index: 78°   Visibility: 10mi
Dew Point: 52°   Wind: 7mph
Humidity: 42%   Direction: 350°N
Pressure: 30.05"   Gusts: NA
Location:  31.1996°N, 89.2694°W
Report Text: KHBG 211753Z AUTO 35006KT 10SM CLR 25/11 A3005 RMK AO2 SLP174 T02500111 10250 20094 58017
Loading
Personal Weather Stations






























Interactive Weather Map
Tropical Storm Tracking
New forecast layout! Learn more

10-Day Weather Forecast

Advertisements
Track Severe Weather on mobile